Weather at La Chinita International Airport

Public forecast

Using degrees Celsius for public forecast. Weather courtesy of forecast.io.

Current aviation weather report (METAR) for La Chinita International Airport

Report is more than 6 hours old.

Retrieved 2021/07/04 21:03 UTC (11 months ago):

SVMC 042103Z AUTO 00000KT NCD 34/// Q////

Aviation forecast (TAF) for La Chinita International Airport

Retrieved 2022/05/26 12:03 UTC (5 hours ago):

TAF SVMC 261000Z 2612/2712 12003KT 9999 SCT016 TX33/2619Z TN23/2608Z PROB30 TEMPO 2512/2516 05002KT 9000 -DZ SCT016 SCT080